Dream — FAC4007 — position and weather

sailwx.info

Track history (hours):
 
Tides and Currents Weather Stations Pressure Air Temp Water Temp Dewpoint Dewpoint Depression Visibility Wind Speed Wind Dir Waves Ship Positions

Dream

Last reported at 2017-Oct-06 16:09 UTC. Time now 2017-Oct-22 06:31 UTC.
Position N 37°56' E 023°39'.
Warning: this ship's position is 15 days out of date.

Length 17 m.

MMSI: 227282470.

Date/timePositionNaut miles runAvg speedWind from/ knotsBaromVisibWave heightAir tempDewpointWater temp
2017-Oct-06 16:09N 37°56' E 023°39'0 0.0
2017-Oct-06 15:57N 37°56' E 023°39'0 0.0
2017-Oct-06 15:30N 37°56' E 023°39'1 2.1
2017-Oct-06 15:00N 37°55' E 023°39'4 8.7
2017-Oct-06 14:30N 37°51' E 023°37'4 8.8
2017-Oct-06 14:00N 37°47' E 023°35'4 8.9
2017-Oct-06 13:30N 37°43' E 023°33'  
2017-Sep-29 14:40N 37°41' E 023°53'2 9.6
2017-Sep-29 14:29N 37°42' E 023°51'4 9.0
2017-Sep-29 14:00N 37°46' E 023°48'5 9.0
2017-Sep-29 13:30N 37°49' E 023°44'5 9.1
2017-Sep-29 13:00N 37°53' E 023°41'3 6.8
2017-Sep-29 12:30N 37°56' E 023°39'0 0.4
2017-Sep-29 12:00N 37°56' E 023°39'0 0.0
2017-Sep-29 11:30N 37°56' E 023°39'0 0.0
2017-Sep-29 11:00N 37°56' E 023°39'0 0.0
2017-Sep-29 10:27N 37°56' E 023°39'0 0.0
2017-Sep-29 09:57N 37°56' E 023°39'0 0.0
2017-Sep-29 09:30N 37°56' E 023°39'0 0.0
2017-Sep-29 08:57N 37°56' E 023°39'0 0.0
2017-Sep-29 08:30N 37°56' E 023°39'  
Track history (hours):
 
Tides and Currents Weather Stations Pressure Air Temp Water Temp Dewpoint Dewpoint Depression Visibility Wind Speed Wind Dir Waves Ship Positions

Dream

Last reported at 2017-Oct-06 16:09 UTC. Time now 2017-Oct-22 06:31 UTC.
Position N 37°56' E 023°39'.
Warning: this ship's position is 15 days out of date.

Length 17 m.

MMSI: 227282470.

Date/timePositionNaut miles runAvg speedWind from/ knotsBaromVisibWave heightAir tempDewpointWater temp
2017-Oct-06 16:09N 37°56' E 023°39'0 0.0
2017-Oct-06 15:57N 37°56' E 023°39'0 0.0
2017-Oct-06 15:30N 37°56' E 023°39'1 2.1
2017-Oct-06 15:00N 37°55' E 023°39'4 8.7
2017-Oct-06 14:30N 37°51' E 023°37'4 8.8
2017-Oct-06 14:00N 37°47' E 023°35'4 8.9
2017-Oct-06 13:30N 37°43' E 023°33'  
2017-Sep-29 14:40N 37°41' E 023°53'2 9.6
2017-Sep-29 14:29N 37°42' E 023°51'4 9.0
2017-Sep-29 14:00N 37°46' E 023°48'5 9.0
2017-Sep-29 13:30N 37°49' E 023°44'5 9.1
2017-Sep-29 13:00N 37°53' E 023°41'3 6.8
2017-Sep-29 12:30N 37°56' E 023°39'0 0.4
2017-Sep-29 12:00N 37°56' E 023°39'0 0.0
2017-Sep-29 11:30N 37°56' E 023°39'0 0.0
2017-Sep-29 11:00N 37°56' E 023°39'0 0.0
2017-Sep-29 10:27N 37°56' E 023°39'0 0.0
2017-Sep-29 09:57N 37°56' E 023°39'0 0.0
2017-Sep-29 09:30N 37°56' E 023°39'0 0.0
2017-Sep-29 08:57N 37°56' E 023°39'0 0.0
2017-Sep-29 08:30N 37°56' E 023°39'  

Dump ship's entire track history